sensor_id;sensor_type;location;lat;lon;timestamp;temperature;humidity
69054;DHT22;56125;52.242;4.756;2023-01-25T00:04:41;17.60;42.70
69054;DHT22;56125;52.242;4.756;2023-01-25T00:09:42;17.60;43.10
69054;DHT22;56125;52.242;4.756;2023-01-25T00:14:44;17.60;42.60
69054;DHT22;56125;52.242;4.756;2023-01-25T00:19:45;17.60;42.90
69054;DHT22;56125;52.242;4.756;2023-01-25T00:24:46;17.60;42.30
69054;DHT22;56125;52.242;4.756;2023-01-25T00:29:48;17.70;42.70
69054;DHT22;56125;52.242;4.756;2023-01-25T00:34:50;17.70;42.40
69054;DHT22;56125;52.242;4.756;2023-01-25T00:39:51;17.70;42.60
69054;DHT22;56125;52.242;4.756;2023-01-25T00:44:52;17.80;42.30
69054;DHT22;56125;52.242;4.756;2023-01-25T00:49:53;17.70;42.20
69054;DHT22;56125;52.242;4.756;2023-01-25T00:54:54;17.80;42.10
69054;DHT22;56125;52.242;4.756;2023-01-25T00:59:55;17.70;42.10
69054;DHT22;56125;52.242;4.756;2023-01-25T01:04:56;17.80;41.90
69054;DHT22;56125;52.242;4.756;2023-01-25T01:09:57;17.80;42.10
69054;DHT22;56125;52.242;4.756;2023-01-25T01:15:00;17.80;41.90
69054;DHT22;56125;52.242;4.756;2023-01-25T01:20:01;17.80;42.00
69054;DHT22;56125;52.242;4.756;2023-01-25T01:25:02;17.90;41.90
69054;DHT22;56125;52.242;4.756;2023-01-25T01:30:03;17.90;41.90
69054;DHT22;56125;52.242;4.756;2023-01-25T01:35:05;17.90;41.60
69054;DHT22;56125;52.242;4.756;2023-01-25T01:40:08;17.90;41.60
69054;DHT22;56125;52.242;4.756;2023-01-25T01:50:51;18.00;41.70
69054;DHT22;56125;52.242;4.756;2023-01-25T01:55:56;18.00;41.60
69054;DHT22;56125;52.242;4.756;2023-01-25T02:00:59;18.00;41.70
69054;DHT22;56125;52.242;4.756;2023-01-25T02:06:35;17.90;41.60
69054;DHT22;56125;52.242;4.756;2023-01-25T02:11:34;17.90;41.70
69054;DHT22;56125;52.242;4.756;2023-01-25T02:16:35;17.90;41.60
69054;DHT22;56125;52.242;4.756;2023-01-25T02:21:40;17.90;41.80
69054;DHT22;56125;52.242;4.756;2023-01-25T02:26:45;17.80;41.50
69054;DHT22;56125;52.242;4.756;2023-01-25T02:31:46;17.90;42.00
69054;DHT22;56125;52.242;4.756;2023-01-25T02:36:49;17.80;41.70
69054;DHT22;56125;52.242;4.756;2023-01-25T02:41:50;17.80;42.00
69054;DHT22;56125;52.242;4.756;2023-01-25T02:46:51;17.80;41.70
69054;DHT22;56125;52.242;4.756;2023-01-25T02:51:53;17.80;42.00
69054;DHT22;56125;52.242;4.756;2023-01-25T02:56:57;17.70;42.00
69054;DHT22;56125;52.242;4.756;2023-01-25T03:01:58;17.70;42.00
69054;DHT22;56125;52.242;4.756;2023-01-25T03:06:59;17.80;42.10
69054;DHT22;56125;52.242;4.756;2023-01-25T03:12:00;17.80;42.20
69054;DHT22;56125;52.242;4.756;2023-01-25T03:17:01;17.70;41.80
69054;DHT22;56125;52.242;4.756;2023-01-25T03:22:02;17.70;42.10
69054;DHT22;56125;52.242;4.756;2023-01-25T03:27:03;17.70;42.00
69054;DHT22;56125;52.242;4.756;2023-01-25T03:32:10;17.70;42.10
69054;DHT22;56125;52.242;4.756;2023-01-25T03:37:12;17.70;41.90
69054;DHT22;56125;52.242;4.756;2023-01-25T03:42:13;17.70;42.10
69054;DHT22;56125;52.242;4.756;2023-01-25T03:47:14;17.70;41.80
69054;DHT22;56125;52.242;4.756;2023-01-25T03:52:15;17.70;42.00
69054;DHT22;56125;52.242;4.756;2023-01-25T03:57:16;17.70;42.90
69054;DHT22;56125;52.242;4.756;2023-01-25T04:02:17;17.70;42.00
69054;DHT22;56125;52.242;4.756;2023-01-25T04:07:18;17.70;41.90
69054;DHT22;56125;52.242;4.756;2023-01-25T04:12:19;17.70;42.00
69054;DHT22;56125;52.242;4.756;2023-01-25T04:17:21;17.70;41.90
69054;DHT22;56125;52.242;4.756;2023-01-25T04:22:22;17.70;42.10
69054;DHT22;56125;52.242;4.756;2023-01-25T04:27:23;17.70;42.00
69054;DHT22;56125;52.242;4.756;2023-01-25T04:32:24;17.70;42.00
69054;DHT22;56125;52.242;4.756;2023-01-25T04:37:25;17.70;41.90
69054;DHT22;56125;52.242;4.756;2023-01-25T04:42:26;17.70;42.00
69054;DHT22;56125;52.242;4.756;2023-01-25T04:47:27;17.70;42.00
69054;DHT22;56125;52.242;4.756;2023-01-25T04:52:28;17.70;41.90
69054;DHT22;56125;52.242;4.756;2023-01-25T04:57:29;17.60;41.80
69054;DHT22;56125;52.242;4.756;2023-01-25T05:02:30;17.70;41.90
69054;DHT22;56125;52.242;4.756;2023-01-25T05:07:31;17.70;42.00
69054;DHT22;56125;52.242;4.756;2023-01-25T05:12:32;17.60;41.90
69054;DHT22;56125;52.242;4.756;2023-01-25T05:17:33;17.60;41.80
69054;DHT22;56125;52.242;4.756;2023-01-25T05:22:34;17.60;41.80
69054;DHT22;56125;52.242;4.756;2023-01-25T05:27:35;17.60;41.80
69054;DHT22;56125;52.242;4.756;2023-01-25T05:32:36;17.60;41.80
69054;DHT22;56125;52.242;4.756;2023-01-25T05:37:37;17.60;42.00
69054;DHT22;56125;52.242;4.756;2023-01-25T05:42:39;17.60;41.80
69054;DHT22;56125;52.242;4.756;2023-01-25T05:47:40;17.60;41.80
69054;DHT22;56125;52.242;4.756;2023-01-25T05:52:41;17.60;41.90
69054;DHT22;56125;52.242;4.756;2023-01-25T05:57:42;17.60;41.90
69054;DHT22;56125;52.242;4.756;2023-01-25T06:02:43;17.60;42.50
69054;DHT22;56125;52.242;4.756;2023-01-25T06:07:44;17.60;42.60
69054;DHT22;56125;52.242;4.756;2023-01-25T06:12:45;17.60;42.60
69054;DHT22;56125;52.242;4.756;2023-01-25T06:17:46;17.60;42.90
69054;DHT22;56125;52.242;4.756;2023-01-25T06:22:50;17.60;42.60
69054;DHT22;56125;52.242;4.756;2023-01-25T06:27:54;17.60;42.60
69054;DHT22;56125;52.242;4.756;2023-01-25T06:32:57;17.60;42.70
69054;DHT22;56125;52.242;4.756;2023-01-25T06:37:59;17.60;42.90
69054;DHT22;56125;52.242;4.756;2023-01-25T06:43:07;17.60;42.80
69054;DHT22;56125;52.242;4.756;2023-01-25T06:48:08;17.60;42.70
69054;DHT22;56125;52.242;4.756;2023-01-25T06:53:09;17.60;42.50
69054;DHT22;56125;52.242;4.756;2023-01-25T06:58:10;17.60;42.50
69054;DHT22;56125;52.242;4.756;2023-01-25T07:03:11;17.60;42.60
69054;DHT22;56125;52.242;4.756;2023-01-25T07:08:12;17.50;42.50
69054;DHT22;56125;52.242;4.756;2023-01-25T07:13:13;17.60;42.40
69054;DHT22;56125;52.242;4.756;2023-01-25T07:18:14;17.50;41.40
69054;DHT22;56125;52.242;4.756;2023-01-25T07:23:15;17.50;41.10
69054;DHT22;56125;52.242;4.756;2023-01-25T07:28:17;17.50;40.70
69054;DHT22;56125;52.242;4.756;2023-01-25T07:33:18;17.50;40.50
69054;DHT22;56125;52.242;4.756;2023-01-25T07:38:18;17.50;40.00
69054;DHT22;56125;52.242;4.756;2023-01-25T07:43:20;17.40;40.40
69054;DHT22;56125;52.242;4.756;2023-01-25T07:48:21;17.60;40.10
69054;DHT22;56125;52.242;4.756;2023-01-25T07:53:22;18.10;39.50
69054;DHT22;56125;52.242;4.756;2023-01-25T07:58:23;18.50;39.50
69054;DHT22;56125;52.242;4.756;2023-01-25T08:03:24;19.00;38.80
69054;DHT22;56125;52.242;4.756;2023-01-25T08:08:25;19.30;38.20
69054;DHT22;56125;52.242;4.756;2023-01-25T08:13:26;19.50;37.80
69054;DHT22;56125;52.242;4.756;2023-01-25T08:18:27;19.40;37.40
69054;DHT22;56125;52.242;4.756;2023-01-25T08:23:28;19.20;37.80
69054;DHT22;56125;52.242;4.756;2023-01-25T08:28:29;19.20;39.20
69054;DHT22;56125;52.242;4.756;2023-01-25T08:33:31;19.00;39.60
69054;DHT22;56125;52.242;4.756;2023-01-25T08:38:32;19.00;39.70
69054;DHT22;56125;52.242;4.756;2023-01-25T08:43:34;18.90;40.00
69054;DHT22;56125;52.242;4.756;2023-01-25T08:48:35;19.00;38.00
69054;DHT22;56125;52.242;4.756;2023-01-25T08:53:36;19.00;37.80
69054;DHT22;56125;52.242;4.756;2023-01-25T08:58:39;19.10;39.60
69054;DHT22;56125;52.242;4.756;2023-01-25T09:03:46;19.00;39.60
69054;DHT22;56125;52.242;4.756;2023-01-25T09:08:47;19.10;38.40
69054;DHT22;56125;52.242;4.756;2023-01-25T09:13:48;19.40;38.30
69054;DHT22;56125;52.242;4.756;2023-01-25T09:18:49;19.50;37.50
69054;DHT22;56125;52.242;4.756;2023-01-25T09:23:52;19.40;39.20
69054;DHT22;56125;52.242;4.756;2023-01-25T09:28:53;19.40;39.30
69054;DHT22;56125;52.242;4.756;2023-01-25T09:33:54;19.40;39.40
69054;DHT22;56125;52.242;4.756;2023-01-25T09:38:56;19.40;39.50
69054;DHT22;56125;52.242;4.756;2023-01-25T09:44:34;19.40;40.70
69054;DHT22;56125;52.242;4.756;2023-01-25T09:54:45;19.40;39.40
69054;DHT22;56125;52.242;4.756;2023-01-25T09:59:48;19.40;39.70
69054;DHT22;56125;52.242;4.756;2023-01-25T10:04:52;19.40;39.40
69054;DHT22;56125;52.242;4.756;2023-01-25T10:10:12;19.50;39.60
69054;DHT22;56125;52.242;4.756;2023-01-25T10:15:20;19.50;39.40
69054;DHT22;56125;52.242;4.756;2023-01-25T10:25:31;19.50;39.50
69054;DHT22;56125;52.242;4.756;2023-01-25T10:30:42;19.60;39.60
69054;DHT22;56125;52.242;4.756;2023-01-25T10:35:47;19.60;39.40
69054;DHT22;56125;52.242;4.756;2023-01-25T10:40:54;19.60;39.20
69054;DHT22;56125;52.242;4.756;2023-01-25T10:45:56;19.60;39.50
69054;DHT22;56125;52.242;4.756;2023-01-25T10:50:57;19.60;39.90
69054;DHT22;56125;52.242;4.756;2023-01-25T10:56:11;19.60;39.10
69054;DHT22;56125;52.242;4.756;2023-01-25T11:01:32;19.70;39.40
69054;DHT22;56125;52.242;4.756;2023-01-25T11:06:39;19.70;39.00
69054;DHT22;56125;52.242;4.756;2023-01-25T11:11:54;19.70;38.80
69054;DHT22;56125;52.242;4.756;2023-01-25T11:16:57;19.70;39.00
69054;DHT22;56125;52.242;4.756;2023-01-25T11:22:00;19.70;39.20
69054;DHT22;56125;52.242;4.756;2023-01-25T11:27:18;19.70;39.30
69054;DHT22;56125;52.242;4.756;2023-01-25T11:32:21;19.80;39.40
69054;DHT22;56125;52.242;4.756;2023-01-25T11:43:10;19.80;39.40
69054;DHT22;56125;52.242;4.756;2023-01-25T11:48:28;19.80;39.40
69054;DHT22;56125;52.242;4.756;2023-01-25T11:53:39;19.80;39.10
69054;DHT22;56125;52.242;4.756;2023-01-25T12:09:43;20.00;38.40
69054;DHT22;56125;52.242;4.756;2023-01-25T12:26:27;20.00;36.70
69054;DHT22;56125;52.242;4.756;2023-01-25T12:31:44;20.00;37.30
69054;DHT22;56125;52.242;4.756;2023-01-25T12:36:49;20.10;38.80
69054;DHT22;56125;52.242;4.756;2023-01-25T12:42:05;20.20;38.90
69054;DHT22;56125;52.242;4.756;2023-01-25T12:47:17;20.20;38.70
69054;DHT22;56125;52.242;4.756;2023-01-25T12:52:33;20.20;37.20
69054;DHT22;56125;52.242;4.756;2023-01-25T13:08:30;20.30;37.80
69054;DHT22;56125;52.242;4.756;2023-01-25T13:13:35;20.30;36.80
69054;DHT22;56125;52.242;4.756;2023-01-25T13:18:36;20.30;35.80
69054;DHT22;56125;52.242;4.756;2023-01-25T13:23:40;20.60;35.50
69054;DHT22;56125;52.242;4.756;2023-01-25T13:28:51;20.50;36.50
69054;DHT22;56125;52.242;4.756;2023-01-25T13:33:53;20.50;37.60
69054;DHT22;56125;52.242;4.756;2023-01-25T13:38:54;20.50;37.80
69054;DHT22;56125;52.242;4.756;2023-01-25T13:44:16;20.50;37.80
69054;DHT22;56125;52.242;4.756;2023-01-25T13:49:27;20.50;37.70
69054;DHT22;56125;52.242;4.756;2023-01-25T13:54:30;20.50;37.70
69054;DHT22;56125;52.242;4.756;2023-01-25T13:59:31;20.50;37.80
69054;DHT22;56125;52.242;4.756;2023-01-25T14:04:32;20.50;37.70
69054;DHT22;56125;52.242;4.756;2023-01-25T14:09:33;20.50;37.60
69054;DHT22;56125;52.242;4.756;2023-01-25T14:14:35;20.50;37.70
69054;DHT22;56125;52.242;4.756;2023-01-25T14:19:43;20.60;37.70
69054;DHT22;56125;52.242;4.756;2023-01-25T14:24:59;20.60;37.70
69054;DHT22;56125;52.242;4.756;2023-01-25T14:30:02;20.60;37.60
69054;DHT22;56125;52.242;4.756;2023-01-25T14:35:26;20.60;37.60
69054;DHT22;56125;52.242;4.756;2023-01-25T14:40:31;20.60;37.60
69054;DHT22;56125;52.242;4.756;2023-01-25T14:45:32;20.60;37.50
69054;DHT22;56125;52.242;4.756;2023-01-25T14:50:35;20.60;37.50
69054;DHT22;56125;52.242;4.756;2023-01-25T14:55:36;20.60;37.40
69054;DHT22;56125;52.242;4.756;2023-01-25T15:00:37;20.60;37.60
69054;DHT22;56125;52.242;4.756;2023-01-25T15:05:44;20.60;37.40
69054;DHT22;56125;52.242;4.756;2023-01-25T15:10:50;20.60;37.30
69054;DHT22;56125;52.242;4.756;2023-01-25T15:20:57;20.60;37.20
69054;DHT22;56125;52.242;4.756;2023-01-25T15:25:59;20.60;37.30
69054;DHT22;56125;52.242;4.756;2023-01-25T15:31:03;20.70;37.30
69054;DHT22;56125;52.242;4.756;2023-01-25T15:36:04;20.60;37.20
69054;DHT22;56125;52.242;4.756;2023-01-25T15:41:05;20.70;37.20
69054;DHT22;56125;52.242;4.756;2023-01-25T15:46:21;20.60;37.20
69054;DHT22;56125;52.242;4.756;2023-01-25T15:51:23;20.70;37.10
69054;DHT22;56125;52.242;4.756;2023-01-25T15:56:28;20.70;37.20
69054;DHT22;56125;52.242;4.756;2023-01-25T16:01:30;20.70;37.30
69054;DHT22;56125;52.242;4.756;2023-01-25T16:06:49;20.70;37.00
69054;DHT22;56125;52.242;4.756;2023-01-25T16:11:52;20.70;37.20
69054;DHT22;56125;52.242;4.756;2023-01-25T16:16:56;20.70;37.30
69054;DHT22;56125;52.242;4.756;2023-01-25T16:21:58;20.70;37.20
69054;DHT22;56125;52.242;4.756;2023-01-25T16:26:59;20.70;37.10
69054;DHT22;56125;52.242;4.756;2023-01-25T16:32:01;20.70;37.40
69054;DHT22;56125;52.242;4.756;2023-01-25T16:37:02;20.70;37.20
69054;DHT22;56125;52.242;4.756;2023-01-25T16:42:03;20.70;37.00
69054;DHT22;56125;52.242;4.756;2023-01-25T16:47:04;20.70;36.80
69054;DHT22;56125;52.242;4.756;2023-01-25T16:52:06;20.70;37.10
69054;DHT22;56125;52.242;4.756;2023-01-25T16:57:08;20.60;37.30
69054;DHT22;56125;52.242;4.756;2023-01-25T17:02:10;20.40;37.20
69054;DHT22;56125;52.242;4.756;2023-01-25T17:07:12;20.30;37.20
69054;DHT22;56125;52.242;4.756;2023-01-25T17:12:13;20.10;37.20
69054;DHT22;56125;52.242;4.756;2023-01-25T17:17:14;20.00;37.20
69054;DHT22;56125;52.242;4.756;2023-01-25T17:22:15;19.90;37.30
69054;DHT22;56125;52.242;4.756;2023-01-25T17:27:16;19.80;37.20
69054;DHT22;56125;52.242;4.756;2023-01-25T17:32:17;19.70;37.30
69054;DHT22;56125;52.242;4.756;2023-01-25T17:37:19;19.60;37.20
69054;DHT22;56125;52.242;4.756;2023-01-25T17:42:20;19.60;38.30
69054;DHT22;56125;52.242;4.756;2023-01-25T17:47:21;19.50;37.30
69054;DHT22;56125;52.242;4.756;2023-01-25T17:52:22;19.40;37.20
69054;DHT22;56125;52.242;4.756;2023-01-25T17:57:23;19.40;37.30
69054;DHT22;56125;52.242;4.756;2023-01-25T18:02:26;19.30;37.60
69054;DHT22;56125;52.242;4.756;2023-01-25T18:07:27;19.30;37.70
69054;DHT22;56125;52.242;4.756;2023-01-25T18:12:28;19.20;37.40
69054;DHT22;56125;52.242;4.756;2023-01-25T18:17:30;19.20;37.40
69054;DHT22;56125;52.242;4.756;2023-01-25T18:22:35;19.20;37.50
69054;DHT22;56125;52.242;4.756;2023-01-25T18:27:36;19.10;37.20
69054;DHT22;56125;52.242;4.756;2023-01-25T18:32:37;19.10;37.20
69054;DHT22;56125;52.242;4.756;2023-01-25T18:37:38;19.00;37.00
69054;DHT22;56125;52.242;4.756;2023-01-25T18:42:43;18.90;36.90
69054;DHT22;56125;52.242;4.756;2023-01-25T18:47:45;18.90;37.00
69054;DHT22;56125;52.242;4.756;2023-01-25T18:52:46;18.80;37.00
69054;DHT22;56125;52.242;4.756;2023-01-25T18:57:47;18.80;37.30
69054;DHT22;56125;52.242;4.756;2023-01-25T19:02:48;18.70;37.60
69054;DHT22;56125;52.242;4.756;2023-01-25T19:07:49;18.80;37.70
69054;DHT22;56125;52.242;4.756;2023-01-25T19:12:50;18.70;37.80
69054;DHT22;56125;52.242;4.756;2023-01-25T19:17:51;18.70;37.90
69054;DHT22;56125;52.242;4.756;2023-01-25T19:22:53;18.60;37.70
69054;DHT22;56125;52.242;4.756;2023-01-25T19:27:54;18.60;37.80
69054;DHT22;56125;52.242;4.756;2023-01-25T19:32:55;18.60;38.00
69054;DHT22;56125;52.242;4.756;2023-01-25T19:37:56;18.60;37.90
69054;DHT22;56125;52.242;4.756;2023-01-25T19:42:57;18.60;38.00
69054;DHT22;56125;52.242;4.756;2023-01-25T19:47:58;18.60;38.00
69054;DHT22;56125;52.242;4.756;2023-01-25T19:52:59;18.50;37.80
69054;DHT22;56125;52.242;4.756;2023-01-25T19:58:02;18.50;37.90
69054;DHT22;56125;52.242;4.756;2023-01-25T20:03:03;18.50;37.80
69054;DHT22;56125;52.242;4.756;2023-01-25T20:08:04;18.50;37.90
69054;DHT22;56125;52.242;4.756;2023-01-25T20:13:05;18.50;37.80
69054;DHT22;56125;52.242;4.756;2023-01-25T20:18:06;18.40;37.80
69054;DHT22;56125;52.242;4.756;2023-01-25T20:23:07;18.40;37.80
69054;DHT22;56125;52.242;4.756;2023-01-25T20:28:08;18.40;37.70
69054;DHT22;56125;52.242;4.756;2023-01-25T20:33:09;18.40;37.70
69054;DHT22;56125;52.242;4.756;2023-01-25T20:38:10;18.30;37.70
69054;DHT22;56125;52.242;4.756;2023-01-25T20:43:11;18.30;37.80
69054;DHT22;56125;52.242;4.756;2023-01-25T20:48:13;18.30;37.70
69054;DHT22;56125;52.242;4.756;2023-01-25T20:53:15;18.30;37.90
69054;DHT22;56125;52.242;4.756;2023-01-25T20:58:16;18.30;37.90
69054;DHT22;56125;52.242;4.756;2023-01-25T21:03:17;18.30;37.90
69054;DHT22;56125;52.242;4.756;2023-01-25T21:08:18;18.30;37.90
69054;DHT22;56125;52.242;4.756;2023-01-25T21:13:20;18.20;38.00
69054;DHT22;56125;52.242;4.756;2023-01-25T21:18:22;18.20;38.00
69054;DHT22;56125;52.242;4.756;2023-01-25T21:23:23;18.20;38.00
69054;DHT22;56125;52.242;4.756;2023-01-25T21:28:24;18.20;38.10
69054;DHT22;56125;52.242;4.756;2023-01-25T21:33:25;18.20;38.10
69054;DHT22;56125;52.242;4.756;2023-01-25T21:38:26;18.10;38.20
69054;DHT22;56125;52.242;4.756;2023-01-25T21:43:27;18.10;38.70
69054;DHT22;56125;52.242;4.756;2023-01-25T21:48:28;18.10;38.80
69054;DHT22;56125;52.242;4.756;2023-01-25T21:53:48;18.10;39.00
69054;DHT22;56125;52.242;4.756;2023-01-25T21:58:49;18.10;38.80
69054;DHT22;56125;52.242;4.756;2023-01-25T22:03:51;18.10;38.70
69054;DHT22;56125;52.242;4.756;2023-01-25T22:08:52;18.10;38.90
69054;DHT22;56125;52.242;4.756;2023-01-25T22:13:53;18.10;39.50
69054;DHT22;56125;52.242;4.756;2023-01-25T22:18:55;18.10;39.30
69054;DHT22;56125;52.242;4.756;2023-01-25T22:23:56;18.10;39.20
69054;DHT22;56125;52.242;4.756;2023-01-25T22:28:59;18.10;39.10
69054;DHT22;56125;52.242;4.756;2023-01-25T22:34:00;18.00;39.00
69054;DHT22;56125;52.242;4.756;2023-01-25T22:39:01;18.00;39.00
69054;DHT22;56125;52.242;4.756;2023-01-25T22:44:02;18.00;38.90
69054;DHT22;56125;52.242;4.756;2023-01-25T22:49:03;18.00;38.90
69054;DHT22;56125;52.242;4.756;2023-01-25T22:54:04;18.00;38.90
69054;DHT22;56125;52.242;4.756;2023-01-25T22:59:07;18.00;38.80
69054;DHT22;56125;52.242;4.756;2023-01-25T23:04:09;18.00;38.80
69054;DHT22;56125;52.242;4.756;2023-01-25T23:09:10;18.00;38.80
69054;DHT22;56125;52.242;4.756;2023-01-25T23:14:11;18.00;38.70
69054;DHT22;56125;52.242;4.756;2023-01-25T23:19:31;18.00;38.80
69054;DHT22;56125;52.242;4.756;2023-01-25T23:24:32;17.90;38.80
69054;DHT22;56125;52.242;4.756;2023-01-25T23:29:33;17.90;38.70
69054;DHT22;56125;52.242;4.756;2023-01-25T23:34:34;17.90;38.70
69054;DHT22;56125;52.242;4.756;2023-01-25T23:39:36;17.90;38.80
69054;DHT22;56125;52.242;4.756;2023-01-25T23:44:37;17.90;38.70
69054;DHT22;56125;52.242;4.756;2023-01-25T23:49:39;17.80;38.60
69054;DHT22;56125;52.242;4.756;2023-01-25T23:54:40;17.90;38.70
69054;DHT22;56125;52.242;4.756;2023-01-25T23:59:41;17.90;38.70
